sensor_id;sensor_type;location;lat;lon;timestamp;pressure;altitude;pressure_sealevel;temperature;humidity
32324;BME280;25666;44.350;9.222;2022-12-07T00:01:18;101335.03;;;8.52;100.00
32324;BME280;25666;44.350;9.222;2022-12-07T00:03:45;101329.31;;;8.48;100.00
32324;BME280;25666;44.350;9.222;2022-12-07T00:06:14;101329.16;;;8.53;100.00
32324;BME280;25666;44.350;9.222;2022-12-07T00:08:40;101324.44;;;8.54;100.00
32324;BME280;25666;44.350;9.222;2022-12-07T00:11:11;101317.59;;;8.60;100.00
32324;BME280;25666;44.350;9.222;2022-12-07T00:13:37;101318.72;;;8.59;100.00
32324;BME280;25666;44.350;9.222;2022-12-07T00:16:08;101327.22;;;8.54;100.00
32324;BME280;25666;44.350;9.222;2022-12-07T00:18:34;101319.50;;;8.42;100.00
32324;BME280;25666;44.350;9.222;2022-12-07T00:21:11;101308.41;;;8.42;100.00
32324;BME280;25666;44.350;9.222;2022-12-07T00:23:37;101309.38;;;8.38;100.00
32324;BME280;25666;44.350;9.222;2022-12-07T00:26:17;101313.09;;;8.33;100.00
32324;BME280;25666;44.350;9.222;2022-12-07T00:28:51;101320.94;;;8.40;100.00
32324;BME280;25666;44.350;9.222;2022-12-07T00:31:19;101312.44;;;8.28;100.00
32324;BME280;25666;44.350;9.222;2022-12-07T00:33:46;101314.03;;;8.20;100.00
32324;BME280;25666;44.350;9.222;2022-12-07T00:36:17;101308.13;;;8.22;100.00
32324;BME280;25666;44.350;9.222;2022-12-07T00:38:43;101305.09;;;8.32;100.00
32324;BME280;25666;44.350;9.222;2022-12-07T00:41:23;101296.91;;;8.27;100.00
32324;BME280;25666;44.350;9.222;2022-12-07T00:43:49;101301.09;;;8.16;100.00
32324;BME280;25666;44.350;9.222;2022-12-07T00:46:16;101302.09;;;8.20;100.00
32324;BME280;25666;44.350;9.222;2022-12-07T00:48:42;101301.34;;;8.28;100.00
32324;BME280;25666;44.350;9.222;2022-12-07T00:51:09;101293.19;;;8.31;100.00
32324;BME280;25666;44.350;9.222;2022-12-07T00:53:36;101291.72;;;8.34;100.00
32324;BME280;25666;44.350;9.222;2022-12-07T00:56:13;101291.41;;;8.35;100.00
32324;BME280;25666;44.350;9.222;2022-12-07T00:58:40;101293.06;;;8.36;100.00
32324;BME280;25666;44.350;9.222;2022-12-07T01:01:06;101290.41;;;8.31;100.00
32324;BME280;25666;44.350;9.222;2022-12-07T01:03:32;101300.00;;;8.25;100.00
32324;BME280;25666;44.350;9.222;2022-12-07T01:05:58;101292.72;;;8.29;100.00
32324;BME280;25666;44.350;9.222;2022-12-07T01:08:25;101299.34;;;8.20;100.00
32324;BME280;25666;44.350;9.222;2022-12-07T01:11:02;101288.53;;;8.18;100.00
32324;BME280;25666;44.350;9.222;2022-12-07T01:13:28;101294.59;;;8.20;100.00
32324;BME280;25666;44.350;9.222;2022-12-07T01:15:57;101292.81;;;8.24;100.00
32324;BME280;25666;44.350;9.222;2022-12-07T01:18:25;101294.00;;;8.32;100.00
32324;BME280;25666;44.350;9.222;2022-12-07T01:21:02;101291.56;;;8.30;100.00
32324;BME280;25666;44.350;9.222;2022-12-07T01:23:28;101289.38;;;8.27;100.00
32324;BME280;25666;44.350;9.222;2022-12-07T01:25:58;101291.50;;;8.22;100.00
32324;BME280;25666;44.350;9.222;2022-12-07T01:28:24;101286.94;;;8.26;100.00
32324;BME280;25666;44.350;9.222;2022-12-07T01:31:06;101294.66;;;8.29;100.00
32324;BME280;25666;44.350;9.222;2022-12-07T01:33:34;101289.06;;;8.20;100.00
32324;BME280;25666;44.350;9.222;2022-12-07T01:36:02;101293.06;;;8.05;100.00
32324;BME280;25666;44.350;9.222;2022-12-07T01:38:29;101295.34;;;8.03;100.00
32324;BME280;25666;44.350;9.222;2022-12-07T01:40:55;101290.94;;;8.02;100.00
32324;BME280;25666;44.350;9.222;2022-12-07T01:43:23;101288.09;;;7.85;100.00
32324;BME280;25666;44.350;9.222;2022-12-07T01:45:50;101290.19;;;7.80;100.00
32324;BME280;25666;44.350;9.222;2022-12-07T01:48:18;101293.25;;;7.70;100.00
32324;BME280;25666;44.350;9.222;2022-12-07T01:50:47;101298.56;;;7.88;100.00
32324;BME280;25666;44.350;9.222;2022-12-07T01:53:14;101292.16;;;7.79;100.00
32324;BME280;25666;44.350;9.222;2022-12-07T01:55:42;101286.16;;;7.86;100.00
32324;BME280;25666;44.350;9.222;2022-12-07T01:58:10;101282.38;;;7.82;100.00
32324;BME280;25666;44.350;9.222;2022-12-07T02:00:37;101275.53;;;7.79;100.00
32324;BME280;25666;44.350;9.222;2022-12-07T02:03:11;101277.97;;;7.81;100.00
32324;BME280;25666;44.350;9.222;2022-12-07T02:05:41;101275.38;;;7.84;100.00
32324;BME280;25666;44.350;9.222;2022-12-07T02:08:07;101282.28;;;7.95;100.00
32324;BME280;25666;44.350;9.222;2022-12-07T02:10:33;101281.50;;;8.03;100.00
32324;BME280;25666;44.350;9.222;2022-12-07T02:13:06;101278.16;;;7.93;100.00
32324;BME280;25666;44.350;9.222;2022-12-07T02:25:59;101284.09;;;7.69;100.00
32324;BME280;25666;44.350;9.222;2022-12-07T02:28:35;101271.75;;;7.75;100.00
32324;BME280;25666;44.350;9.222;2022-12-07T02:31:16;101271.72;;;7.67;100.00
32324;BME280;25666;44.350;9.222;2022-12-07T02:34:10;101270.31;;;7.55;100.00
32324;BME280;25666;44.350;9.222;2022-12-07T02:36:43;101276.19;;;7.54;100.00
32324;BME280;25666;44.350;9.222;2022-12-07T02:39:13;101267.63;;;7.64;100.00
32324;BME280;25666;44.350;9.222;2022-12-07T02:41:47;101271.91;;;7.70;100.00
32324;BME280;25666;44.350;9.222;2022-12-07T02:44:18;101272.56;;;7.76;100.00
32324;BME280;25666;44.350;9.222;2022-12-07T02:47:01;101265.53;;;7.70;100.00
32324;BME280;25666;44.350;9.222;2022-12-07T02:49:28;101261.59;;;7.71;100.00
32324;BME280;25666;44.350;9.222;2022-12-07T02:51:54;101254.44;;;7.70;100.00
32324;BME280;25666;44.350;9.222;2022-12-07T02:54:20;101253.13;;;7.67;100.00
32324;BME280;25666;44.350;9.222;2022-12-07T02:56:55;101249.09;;;7.73;100.00
32324;BME280;25666;44.350;9.222;2022-12-07T03:02:25;101249.03;;;7.65;100.00
32324;BME280;25666;44.350;9.222;2022-12-07T03:05:55;101252.13;;;7.63;100.00
32324;BME280;25666;44.350;9.222;2022-12-07T03:08:06;101240.56;;;7.61;100.00
32324;BME280;25666;44.350;9.222;2022-12-07T03:10:47;101236.97;;;7.61;100.00
32324;BME280;25666;44.350;9.222;2022-12-07T03:16:41;101240.22;;;7.63;100.00
32324;BME280;25666;44.350;9.222;2022-12-07T03:19:15;101234.00;;;7.57;100.00
32324;BME280;25666;44.350;9.222;2022-12-07T03:21:46;101237.25;;;7.50;100.00
32324;BME280;25666;44.350;9.222;2022-12-07T03:24:15;101242.13;;;7.53;100.00
32324;BME280;25666;44.350;9.222;2022-12-07T03:26:53;101234.31;;;7.55;100.00
32324;BME280;25666;44.350;9.222;2022-12-07T03:29:28;101229.88;;;7.46;100.00
32324;BME280;25666;44.350;9.222;2022-12-07T03:32:09;101228.56;;;7.43;100.00
32324;BME280;25666;44.350;9.222;2022-12-07T03:34:47;101224.03;;;7.47;100.00
32324;BME280;25666;44.350;9.222;2022-12-07T03:37:40;101221.72;;;7.41;100.00
32324;BME280;25666;44.350;9.222;2022-12-07T03:40:35;101225.56;;;7.31;100.00
32324;BME280;25666;44.350;9.222;2022-12-07T03:43:03;101231.13;;;7.40;100.00
32324;BME280;25666;44.350;9.222;2022-12-07T03:45:41;101232.09;;;7.35;100.00
32324;BME280;25666;44.350;9.222;2022-12-07T03:53:44;101238.19;;;7.24;100.00
32324;BME280;25666;44.350;9.222;2022-12-07T03:56:12;101244.31;;;7.34;100.00
32324;BME280;25666;44.350;9.222;2022-12-07T03:58:38;101247.03;;;7.04;100.00
32324;BME280;25666;44.350;9.222;2022-12-07T04:01:05;101232.66;;;7.24;100.00
32324;BME280;25666;44.350;9.222;2022-12-07T04:03:31;101233.19;;;7.26;100.00
32324;BME280;25666;44.350;9.222;2022-12-07T04:05:56;101233.69;;;7.28;100.00
32324;BME280;25666;44.350;9.222;2022-12-07T04:08:24;101231.44;;;7.30;100.00
32324;BME280;25666;44.350;9.222;2022-12-07T04:10:50;101222.06;;;7.17;100.00
32324;BME280;25666;44.350;9.222;2022-12-07T04:13:15;101226.81;;;7.25;100.00
32324;BME280;25666;44.350;9.222;2022-12-07T04:15:41;101225.81;;;7.21;100.00
32324;BME280;25666;44.350;9.222;2022-12-07T04:18:06;101218.22;;;7.05;100.00
32324;BME280;25666;44.350;9.222;2022-12-07T04:20:32;101219.78;;;7.19;100.00
32324;BME280;25666;44.350;9.222;2022-12-07T04:22:57;101215.31;;;7.32;100.00
32324;BME280;25666;44.350;9.222;2022-12-07T04:25:23;101210.88;;;7.31;100.00
32324;BME280;25666;44.350;9.222;2022-12-07T04:27:48;101203.84;;;7.25;100.00
32324;BME280;25666;44.350;9.222;2022-12-07T04:30:14;101205.34;;;7.31;100.00
32324;BME280;25666;44.350;9.222;2022-12-07T04:32:39;101206.50;;;7.30;100.00
32324;BME280;25666;44.350;9.222;2022-12-07T04:35:05;101212.59;;;7.18;100.00
32324;BME280;25666;44.350;9.222;2022-12-07T04:37:31;101211.34;;;7.24;100.00
32324;BME280;25666;44.350;9.222;2022-12-07T04:39:56;101212.59;;;7.18;100.00
32324;BME280;25666;44.350;9.222;2022-12-07T04:42:22;101218.47;;;7.17;100.00
32324;BME280;25666;44.350;9.222;2022-12-07T04:44:47;101216.00;;;7.15;100.00
32324;BME280;25666;44.350;9.222;2022-12-07T04:47:13;101211.44;;;7.11;100.00
32324;BME280;25666;44.350;9.222;2022-12-07T04:49:38;101213.88;;;7.12;100.00
32324;BME280;25666;44.350;9.222;2022-12-07T04:52:04;101216.53;;;7.17;100.00
32324;BME280;25666;44.350;9.222;2022-12-07T04:54:29;101210.09;;;7.08;100.00
32324;BME280;25666;44.350;9.222;2022-12-07T04:56:55;101207.31;;;7.08;100.00
32324;BME280;25666;44.350;9.222;2022-12-07T04:59:21;101206.84;;;7.06;100.00
32324;BME280;25666;44.350;9.222;2022-12-07T05:01:46;101206.38;;;7.13;100.00
32324;BME280;25666;44.350;9.222;2022-12-07T05:04:12;101209.59;;;7.06;100.00
32324;BME280;25666;44.350;9.222;2022-12-07T05:06:37;101211.16;;;6.98;100.00
32324;BME280;25666;44.350;9.222;2022-12-07T05:09:03;101208.22;;;6.95;100.00
32324;BME280;25666;44.350;9.222;2022-12-07T05:11:29;101204.13;;;6.92;100.00
32324;BME280;25666;44.350;9.222;2022-12-07T05:16:41;101204.31;;;6.74;100.00
32324;BME280;25666;44.350;9.222;2022-12-07T05:19:08;101204.19;;;6.79;100.00
32324;BME280;25666;44.350;9.222;2022-12-07T05:21:34;101206.53;;;6.85;100.00
32324;BME280;25666;44.350;9.222;2022-12-07T05:24:00;101200.38;;;6.88;100.00
32324;BME280;25666;44.350;9.222;2022-12-07T05:26:27;101199.97;;;6.81;100.00
32324;BME280;25666;44.350;9.222;2022-12-07T05:28:54;101202.25;;;6.79;100.00
32324;BME280;25666;44.350;9.222;2022-12-07T05:31:20;101190.63;;;6.91;100.00
32324;BME280;25666;44.350;9.222;2022-12-07T05:33:47;101198.44;;;6.89;100.00
32324;BME280;25666;44.350;9.222;2022-12-07T05:36:12;101207.41;;;6.94;100.00
32324;BME280;25666;44.350;9.222;2022-12-07T05:38:38;101204.25;;;6.87;100.00
32324;BME280;25666;44.350;9.222;2022-12-07T05:41:05;101212.38;;;6.84;100.00
32324;BME280;25666;44.350;9.222;2022-12-07T05:43:32;101221.00;;;6.82;100.00
32324;BME280;25666;44.350;9.222;2022-12-07T05:45:58;101217.78;;;6.89;100.00
32324;BME280;25666;44.350;9.222;2022-12-07T05:48:24;101220.28;;;6.99;100.00
32324;BME280;25666;44.350;9.222;2022-12-07T05:50:50;101223.00;;;7.13;100.00
32324;BME280;25666;44.350;9.222;2022-12-07T05:53:16;101233.25;;;6.90;100.00
32324;BME280;25666;44.350;9.222;2022-12-07T05:55:42;101228.88;;;6.89;100.00
32324;BME280;25666;44.350;9.222;2022-12-07T05:58:07;101240.09;;;6.92;100.00
32324;BME280;25666;44.350;9.222;2022-12-07T06:00:54;101239.41;;;7.09;100.00
32324;BME280;25666;44.350;9.222;2022-12-07T06:03:20;101237.53;;;6.96;100.00
32324;BME280;25666;44.350;9.222;2022-12-07T06:05:45;101239.47;;;6.95;100.00
32324;BME280;25666;44.350;9.222;2022-12-07T06:08:11;101237.53;;;6.96;100.00
32324;BME280;25666;44.350;9.222;2022-12-07T06:10:36;101243.06;;;6.96;100.00
32324;BME280;25666;44.350;9.222;2022-12-07T06:13:02;101239.41;;;6.87;100.00
32324;BME280;25666;44.350;9.222;2022-12-07T06:15:27;101234.75;;;6.96;100.00
32324;BME280;25666;44.350;9.222;2022-12-07T06:17:53;101234.31;;;7.03;100.00
32324;BME280;25666;44.350;9.222;2022-12-07T06:20:18;101237.56;;;6.60;100.00
32324;BME280;25666;44.350;9.222;2022-12-07T06:22:44;101245.31;;;6.72;100.00
32324;BME280;25666;44.350;9.222;2022-12-07T06:25:09;101243.31;;;6.86;100.00
32324;BME280;25666;44.350;9.222;2022-12-07T06:27:35;101235.09;;;6.94;100.00
32324;BME280;25666;44.350;9.222;2022-12-07T06:30:00;101234.63;;;6.79;100.00
32324;BME280;25666;44.350;9.222;2022-12-07T06:32:32;101242.06;;;6.92;100.00
32324;BME280;25666;44.350;9.222;2022-12-07T06:34:59;101236.22;;;6.93;100.00
32324;BME280;25666;44.350;9.222;2022-12-07T06:37:24;101239.22;;;6.83;100.00
32324;BME280;25666;44.350;9.222;2022-12-07T06:39:49;101242.34;;;6.68;100.00
32324;BME280;25666;44.350;9.222;2022-12-07T06:42:15;101242.94;;;6.79;100.00
32324;BME280;25666;44.350;9.222;2022-12-07T06:44:40;101235.38;;;6.71;100.00
32324;BME280;25666;44.350;9.222;2022-12-07T06:47:06;101231.81;;;6.70;100.00
32324;BME280;25666;44.350;9.222;2022-12-07T06:49:33;101234.25;;;6.72;100.00
32324;BME280;25666;44.350;9.222;2022-12-07T06:51:59;101239.22;;;6.83;100.00
32324;BME280;25666;44.350;9.222;2022-12-07T06:54:24;101236.44;;;6.83;100.00
32324;BME280;25666;44.350;9.222;2022-12-07T06:56:50;101239.94;;;6.89;100.00
32324;BME280;25666;44.350;9.222;2022-12-07T06:59:16;101249.13;;;6.98;100.00
32324;BME280;25666;44.350;9.222;2022-12-07T07:01:41;101236.06;;;6.98;100.00
32324;BME280;25666;44.350;9.222;2022-12-07T07:04:07;101245.19;;;6.99;100.00
32324;BME280;25666;44.350;9.222;2022-12-07T07:06:32;101238.25;;;7.02;100.00
32324;BME280;25666;44.350;9.222;2022-12-07T07:08:58;101244.75;;;7.06;100.00
32324;BME280;25666;44.350;9.222;2022-12-07T07:11:24;101247.97;;;6.99;100.00
32324;BME280;25666;44.350;9.222;2022-12-07T07:13:49;101252.81;;;6.93;100.00
32324;BME280;25666;44.350;9.222;2022-12-07T07:16:15;101256.69;;;6.92;100.00
32324;BME280;25666;44.350;9.222;2022-12-07T07:18:40;101248.72;;;6.91;100.00
32324;BME280;25666;44.350;9.222;2022-12-07T07:21:06;101253.50;;;6.99;100.00
32324;BME280;25666;44.350;9.222;2022-12-07T07:23:32;101251.13;;;7.06;100.00
32324;BME280;25666;44.350;9.222;2022-12-07T07:25:57;101258.97;;;7.13;100.00
32324;BME280;25666;44.350;9.222;2022-12-07T07:28:23;101256.78;;;7.23;100.00
32324;BME280;25666;44.350;9.222;2022-12-07T07:30:48;101256.69;;;7.37;100.00
32324;BME280;25666;44.350;9.222;2022-12-07T07:33:14;101261.25;;;7.33;100.00
32324;BME280;25666;44.350;9.222;2022-12-07T07:35:40;101253.19;;;7.23;100.00
32324;BME280;25666;44.350;9.222;2022-12-07T07:38:06;101253.00;;;7.19;100.00
32324;BME280;25666;44.350;9.222;2022-12-07T07:40:32;101261.41;;;7.14;100.00
32324;BME280;25666;44.350;9.222;2022-12-07T07:42:58;101249.59;;;7.22;100.00
32324;BME280;25666;44.350;9.222;2022-12-07T07:45:24;101249.16;;;7.29;100.00
32324;BME280;25666;44.350;9.222;2022-12-07T07:47:50;101257.03;;;7.35;100.00
32324;BME280;25666;44.350;9.222;2022-12-07T07:50:16;101258.53;;;7.41;100.00
32324;BME280;25666;44.350;9.222;2022-12-07T07:52:43;101252.63;;;7.34;100.00
32324;BME280;25666;44.350;9.222;2022-12-07T07:55:09;101249.69;;;7.39;100.00
32324;BME280;25666;44.350;9.222;2022-12-07T07:57:35;101258.72;;;7.45;100.00
32324;BME280;25666;44.350;9.222;2022-12-07T08:00:07;101258.09;;;7.48;100.00
32324;BME280;25666;44.350;9.222;2022-12-07T08:02:37;101262.53;;;7.58;100.00
32324;BME280;25666;44.350;9.222;2022-12-07T08:05:03;101264.03;;;7.64;100.00
32324;BME280;25666;44.350;9.222;2022-12-07T08:07:29;101260.28;;;7.68;100.00
32324;BME280;25666;44.350;9.222;2022-12-07T08:09:55;101263.06;;;7.68;100.00
32324;BME280;25666;44.350;9.222;2022-12-07T08:12:20;101269.16;;;7.79;100.00
32324;BME280;25666;44.350;9.222;2022-12-07T08:14:46;101262.97;;;7.82;100.00
32324;BME280;25666;44.350;9.222;2022-12-07T08:17:12;101273.72;;;7.83;100.00
32324;BME280;25666;44.350;9.222;2022-12-07T08:19:37;101274.28;;;7.94;100.00
32324;BME280;25666;44.350;9.222;2022-12-07T08:22:03;101274.13;;;7.99;100.00
32324;BME280;25666;44.350;9.222;2022-12-07T08:24:29;101272.81;;;7.96;100.00
32324;BME280;25666;44.350;9.222;2022-12-07T08:26:54;101267.00;;;8.06;100.00
32324;BME280;25666;44.350;9.222;2022-12-07T08:29:19;101262.47;;;8.19;100.00
32324;BME280;25666;44.350;9.222;2022-12-07T08:31:46;101270.53;;;8.29;100.00
32324;BME280;25666;44.350;9.222;2022-12-07T08:34:13;101266.94;;;8.37;100.00
32324;BME280;25666;44.350;9.222;2022-12-07T08:36:39;101263.84;;;8.39;100.00
32324;BME280;25666;44.350;9.222;2022-12-07T08:39:05;101271.72;;;8.45;100.00
32324;BME280;25666;44.350;9.222;2022-12-07T08:41:31;101267.13;;;8.49;100.00
32324;BME280;25666;44.350;9.222;2022-12-07T08:43:57;101269.13;;;8.57;100.00
32324;BME280;25666;44.350;9.222;2022-12-07T08:46:31;101277.13;;;8.68;100.00
32324;BME280;25666;44.350;9.222;2022-12-07T08:49:21;101281.22;;;8.79;100.00
32324;BME280;25666;44.350;9.222;2022-12-07T08:51:48;101277.13;;;8.85;100.00
32324;BME280;25666;44.350;9.222;2022-12-07T08:54:16;101283.03;;;8.92;100.00
32324;BME280;25666;44.350;9.222;2022-12-07T08:56:43;101287.28;;;8.98;100.00
32324;BME280;25666;44.350;9.222;2022-12-07T08:59:10;101296.72;;;9.05;100.00
32324;BME280;25666;44.350;9.222;2022-12-07T09:01:38;101288.25;;;9.02;100.00
32324;BME280;25666;44.350;9.222;2022-12-07T09:04:03;101288.56;;;9.09;100.00
32324;BME280;25666;44.350;9.222;2022-12-07T09:06:29;101301.47;;;9.13;100.00
32324;BME280;25666;44.350;9.222;2022-12-07T09:08:58;101302.13;;;9.19;100.00
32324;BME280;25666;44.350;9.222;2022-12-07T09:11:24;101305.22;;;9.26;100.00
32324;BME280;25666;44.350;9.222;2022-12-07T09:13:49;101307.66;;;9.28;100.00
32324;BME280;25666;44.350;9.222;2022-12-07T09:16:15;101306.06;;;9.27;100.00
32324;BME280;25666;44.350;9.222;2022-12-07T09:18:41;101306.84;;;9.36;100.00
32324;BME280;25666;44.350;9.222;2022-12-07T09:21:07;101299.63;;;9.43;100.00
32324;BME280;25666;44.350;9.222;2022-12-07T09:23:33;101297.50;;;9.57;100.00
32324;BME280;25666;44.350;9.222;2022-12-07T09:26:00;101294.53;;;9.62;100.00
32324;BME280;25666;44.350;9.222;2022-12-07T09:28:26;101296.19;;;9.63;100.00
32324;BME280;25666;44.350;9.222;2022-12-07T09:30:51;101285.69;;;9.69;100.00
32324;BME280;25666;44.350;9.222;2022-12-07T09:33:17;101288.78;;;9.76;100.00
32324;BME280;25666;44.350;9.222;2022-12-07T09:35:47;101293.50;;;9.84;100.00
32324;BME280;25666;44.350;9.222;2022-12-07T09:38:13;101291.53;;;9.85;100.00
32324;BME280;25666;44.350;9.222;2022-12-07T09:40:39;101289.44;;;9.82;100.00
32324;BME280;25666;44.350;9.222;2022-12-07T09:43:05;101292.31;;;9.94;100.00
32324;BME280;25666;44.350;9.222;2022-12-07T09:45:35;101296.91;;;9.98;100.00
32324;BME280;25666;44.350;9.222;2022-12-07T09:48:03;101291.13;;;10.03;100.00
32324;BME280;25666;44.350;9.222;2022-12-07T09:50:29;101289.13;;;10.12;100.00
32324;BME280;25666;44.350;9.222;2022-12-07T09:53:07;101287.00;;;10.27;100.00
32324;BME280;25666;44.350;9.222;2022-12-07T09:55:41;101296.94;;;10.28;100.00
32324;BME280;25666;44.350;9.222;2022-12-07T09:58:22;101292.19;;;10.37;100.00
32324;BME280;25666;44.350;9.222;2022-12-07T10:00:51;101284.31;;;10.39;100.00
32324;BME280;25666;44.350;9.222;2022-12-07T10:03:19;101277.25;;;10.41;100.00
32324;BME280;25666;44.350;9.222;2022-12-07T10:05:47;101289.50;;;10.49;100.00
32324;BME280;25666;44.350;9.222;2022-12-07T10:08:13;101284.19;;;10.56;100.00
32324;BME280;25666;44.350;9.222;2022-12-07T10:10:41;101272.94;;;10.52;100.00
32324;BME280;25666;44.350;9.222;2022-12-07T10:13:10;101271.09;;;10.56;100.00
32324;BME280;25666;44.350;9.222;2022-12-07T10:15:49;101264.44;;;10.69;100.00
32324;BME280;25666;44.350;9.222;2022-12-07T10:23:58;101262.16;;;10.92;100.00
32324;BME280;25666;44.350;9.222;2022-12-07T10:26:35;101260.56;;;11.03;100.00
32324;BME280;25666;44.350;9.222;2022-12-07T10:29:13;101259.69;;;11.11;100.00
32324;BME280;25666;44.350;9.222;2022-12-07T10:31:40;101249.88;;;11.26;100.00
32324;BME280;25666;44.350;9.222;2022-12-07T10:34:21;101242.50;;;11.42;100.00
32324;BME280;25666;44.350;9.222;2022-12-07T10:36:47;101239.03;;;11.45;100.00
32324;BME280;25666;44.350;9.222;2022-12-07T10:39:21;101234.50;;;11.53;100.00
32324;BME280;25666;44.350;9.222;2022-12-07T10:41:59;101230.47;;;11.62;100.00
32324;BME280;25666;44.350;9.222;2022-12-07T10:44:30;101226.00;;;11.70;100.00
32324;BME280;25666;44.350;9.222;2022-12-07T10:47:03;101224.38;;;11.81;100.00
32324;BME280;25666;44.350;9.222;2022-12-07T10:49:48;101217.19;;;11.92;100.00
32324;BME280;25666;44.350;9.222;2022-12-07T10:55:14;101204.16;;;12.20;100.00
32324;BME280;25666;44.350;9.222;2022-12-07T10:58:05;101200.09;;;12.30;100.00
32324;BME280;25666;44.350;9.222;2022-12-07T11:00:44;101195.59;;;12.53;100.00
32324;BME280;25666;44.350;9.222;2022-12-07T11:06:37;101188.06;;;12.81;100.00
32324;BME280;25666;44.350;9.222;2022-12-07T11:14:41;101178.19;;;12.84;100.00
32324;BME280;25666;44.350;9.222;2022-12-07T11:17:10;101179.03;;;13.00;100.00
32324;BME280;25666;44.350;9.222;2022-12-07T11:27:40;101163.88;;;13.13;100.00
32324;BME280;25666;44.350;9.222;2022-12-07T11:30:13;101163.78;;;13.25;100.00
32324;BME280;25666;44.350;9.222;2022-12-07T11:38:56;101146.41;;;13.48;100.00
32324;BME280;25666;44.350;9.222;2022-12-07T11:41:28;101144.44;;;13.48;100.00
32324;BME280;25666;44.350;9.222;2022-12-07T11:47:10;101129.00;;;13.54;100.00
32324;BME280;25666;44.350;9.222;2022-12-07T11:49:47;101131.63;;;13.63;100.00
32324;BME280;25666;44.350;9.222;2022-12-07T11:52:25;101124.94;;;13.67;100.00
32324;BME280;25666;44.350;9.222;2022-12-07T11:54:53;101122.06;;;13.64;100.00
32324;BME280;25666;44.350;9.222;2022-12-07T11:57:42;101129.28;;;13.65;100.00
32324;BME280;25666;44.350;9.222;2022-12-07T12:00:15;101120.53;;;13.66;100.00
32324;BME280;25666;44.350;9.222;2022-12-07T12:02:43;101123.50;;;13.73;100.00
32324;BME280;25666;44.350;9.222;2022-12-07T12:05:36;101113.47;;;13.72;100.00
32324;BME280;25666;44.350;9.222;2022-12-07T12:08:22;101105.09;;;13.72;100.00
32324;BME280;25666;44.350;9.222;2022-12-07T12:13:52;101102.13;;;13.81;100.00
32324;BME280;25666;44.350;9.222;2022-12-07T12:16:38;101095.78;;;13.84;100.00
32324;BME280;25666;44.350;9.222;2022-12-07T12:21:49;101086.94;;;13.82;100.00
32324;BME280;25666;44.350;9.222;2022-12-07T12:24:23;101086.94;;;13.82;100.00
32324;BME280;25666;44.350;9.222;2022-12-07T12:26:53;101083.88;;;13.87;100.00
32324;BME280;25666;44.350;9.222;2022-12-07T12:29:23;101083.13;;;13.90;100.00
32324;BME280;25666;44.350;9.222;2022-12-07T12:32:40;101081.00;;;13.83;100.00
32324;BME280;25666;44.350;9.222;2022-12-07T12:35:30;101072.59;;;13.83;100.00
32324;BME280;25666;44.350;9.222;2022-12-07T12:40:50;101071.47;;;13.88;100.00
32324;BME280;25666;44.350;9.222;2022-12-07T12:49:35;101069.06;;;13.86;100.00
32324;BME280;25666;44.350;9.222;2022-12-07T12:54:34;101064.28;;;13.87;100.00
32324;BME280;25666;44.350;9.222;2022-12-07T12:57:24;101070.59;;;13.84;100.00
32324;BME280;25666;44.350;9.222;2022-12-07T13:02:26;101056.16;;;13.82;100.00
32324;BME280;25666;44.350;9.222;2022-12-07T13:05:03;101062.41;;;13.75;100.00
32324;BME280;25666;44.350;9.222;2022-12-07T13:12:58;101063.53;;;13.55;100.00
32324;BME280;25666;44.350;9.222;2022-12-07T13:26:21;101065.44;;;13.35;100.00
32324;BME280;25666;44.350;9.222;2022-12-07T13:31:37;101052.44;;;13.27;100.00
32324;BME280;25666;44.350;9.222;2022-12-07T13:34:27;101053.63;;;13.26;100.00
32324;BME280;25666;44.350;9.222;2022-12-07T13:36:51;101049.81;;;13.19;100.00
32324;BME280;25666;44.350;9.222;2022-12-07T13:39:20;101050.53;;;13.16;100.00
32324;BME280;25666;44.350;9.222;2022-12-07T13:41:58;101058.16;;;13.03;100.00
32324;BME280;25666;44.350;9.222;2022-12-07T13:44:26;101062.66;;;12.92;100.00
32324;BME280;25666;44.350;9.222;2022-12-07T13:47:06;101053.53;;;12.79;100.00
32324;BME280;25666;44.350;9.222;2022-12-07T13:49:46;101061.38;;;12.74;100.00
32324;BME280;25666;44.350;9.222;2022-12-07T13:52:35;101065.50;;;12.64;100.00
32324;BME280;25666;44.350;9.222;2022-12-07T13:57:31;101060.91;;;12.44;100.00
32324;BME280;25666;44.350;9.222;2022-12-07T14:00:01;101067.09;;;12.38;100.00
32324;BME280;25666;44.350;9.222;2022-12-07T14:02:32;101063.06;;;12.35;100.00
32324;BME280;25666;44.350;9.222;2022-12-07T14:05:22;101061.00;;;12.20;100.00
32324;BME280;25666;44.350;9.222;2022-12-07T14:10:27;101067.66;;;12.15;100.00
32324;BME280;25666;44.350;9.222;2022-12-07T14:12:54;101062.22;;;12.07;100.00
32324;BME280;25666;44.350;9.222;2022-12-07T14:15:23;101068.59;;;12.07;100.00
32324;BME280;25666;44.350;9.222;2022-12-07T14:17:54;101066.78;;;11.99;100.00
32324;BME280;25666;44.350;9.222;2022-12-07T14:20:40;101067.38;;;11.93;100.00
32324;BME280;25666;44.350;9.222;2022-12-07T14:23:24;101073.28;;;11.91;100.00
32324;BME280;25666;44.350;9.222;2022-12-07T14:25:52;101067.97;;;11.86;100.00
32324;BME280;25666;44.350;9.222;2022-12-07T14:28:44;101067.97;;;11.74;100.00
32324;BME280;25666;44.350;9.222;2022-12-07T14:31:17;101072.47;;;11.66;100.00
32324;BME280;25666;44.350;9.222;2022-12-07T14:33:44;101080.03;;;11.66;100.00
32324;BME280;25666;44.350;9.222;2022-12-07T14:36:14;101077.94;;;11.63;100.00
32324;BME280;25666;44.350;9.222;2022-12-07T14:38:40;101074.34;;;11.50;100.00
32324;BME280;25666;44.350;9.222;2022-12-07T14:41:12;101070.28;;;11.48;100.00
32324;BME280;25666;44.350;9.222;2022-12-07T14:43:57;101075.50;;;11.37;100.00
32324;BME280;25666;44.350;9.222;2022-12-07T14:46:23;101078.28;;;11.37;100.00